createdAt,value
2023-03-23T00:01:20.453Z,100205.63
2023-03-23T00:03:52.303Z,100190.28
2023-03-23T00:06:22.075Z,100197.56
2023-03-23T00:08:50.785Z,100119.88
2023-03-23T00:11:30.315Z,99776.72
2023-03-23T00:14:02.049Z,99784.47
2023-03-23T00:16:32.963Z,99773.75
2023-03-23T00:19:05.651Z,99775.56
2023-03-23T00:21:37.648Z,99734.84
2023-03-23T00:24:10.575Z,99681.44
2023-03-23T00:26:48.260Z,99704.41
2023-03-23T00:29:22.231Z,99760.72
2023-03-23T00:31:50.089Z,99734.91
2023-03-23T00:34:22.603Z,99765.84
2023-03-23T00:36:57.924Z,99774.91
2023-03-23T00:39:28.853Z,99781.25
2023-03-23T00:42:01.718Z,99777.38
2023-03-23T00:44:34.573Z,99769.78
2023-03-23T00:47:01.155Z,99129.38
2023-03-23T00:49:28.536Z,99451.03
2023-03-23T00:51:56.719Z,99589.16
2023-03-23T00:54:25.109Z,99578.16
2023-03-23T00:56:52.029Z,99584.78
2023-03-23T00:59:19.217Z,99629.19
2023-03-23T01:01:46.465Z,99593.50
2023-03-23T01:04:13.672Z,99576.78
2023-03-23T01:06:43.581Z,99639.59
2023-03-23T01:09:15.789Z,99234.63
2023-03-23T01:11:43.323Z,99236.16
2023-03-23T01:14:13.030Z,99265.44
2023-03-23T01:16:39.655Z,99404.19
2023-03-23T01:19:06.308Z,99476.44
2023-03-23T01:21:33.202Z,99515.69
2023-03-23T01:23:59.885Z,99536.38
2023-03-23T01:26:29.020Z,99560.94
2023-03-23T01:28:56.058Z,99577.25
2023-03-23T01:31:26.192Z,99593.84
2023-03-23T01:33:53.658Z,99620.47
2023-03-23T01:36:33.660Z,99622.50
2023-03-23T01:39:05.749Z,99628.38
2023-03-23T01:41:33.811Z,99626.91
2023-03-23T01:44:08.218Z,99621.66
2023-03-23T01:46:36.915Z,99597.41
2023-03-23T01:49:14.902Z,99575.47
2023-03-23T01:51:48.158Z,98620.03
2023-03-23T01:54:21.326Z,101022.63
2023-03-23T01:57:05.045Z,99574.91
2023-03-23T01:59:34.653Z,99620.50
2023-03-23T02:02:02.052Z,99603.75
2023-03-23T02:04:31.144Z,99671.22
2023-03-23T02:06:59.136Z,99682.81
2023-03-23T02:09:26.721Z,99783.06
2023-03-23T02:11:56.016Z,99719.28
2023-03-23T02:14:25.823Z,99686.44
2023-03-23T02:17:14.058Z,99772.19
2023-03-23T02:20:08.108Z,99846.41
2023-03-23T02:23:07.981Z,99986.09
2023-03-23T02:26:00.739Z,100305.47
2023-03-23T02:28:37.604Z,99071.88
2023-03-23T02:31:22.806Z,97979.22
2023-03-23T02:34:18.645Z,98009.16
2023-03-23T02:36:54.021Z,98017.72
2023-03-23T02:39:46.999Z,98031.38
2023-03-23T02:42:18.821Z,98030.19
2023-03-23T02:44:47.951Z,98030.69
2023-03-23T02:47:20.742Z,97977.91
2023-03-23T02:49:52.507Z,97921.91
2023-03-23T02:52:23.031Z,97943.53
2023-03-23T02:54:52.153Z,98015.09
2023-03-23T02:57:19.013Z,97948.44
2023-03-23T03:00:11.245Z,97910.94
2023-03-23T03:02:42.090Z,97929.31
2023-03-23T03:05:33.054Z,97888.50
2023-03-23T03:08:05.550Z,97884.13
2023-03-23T03:10:48.481Z,97865.97
2023-03-23T03:13:35.213Z,97842.72
2023-03-23T03:16:07.173Z,97820.50
2023-03-23T03:19:16.682Z,97848.69
2023-03-23T03:21:48.149Z,97846.41
2023-03-23T03:24:18.723Z,97835.66
2023-03-23T03:26:48.549Z,97835.84
2023-03-23T03:29:24.117Z,97779.22
2023-03-23T03:31:56.388Z,97811.00
2023-03-23T03:34:25.265Z,97817.63
2023-03-23T03:36:56.085Z,97821.34
2023-03-23T03:39:22.770Z,97846.88
2023-03-23T03:41:49.777Z,97816.78
2023-03-23T03:44:16.724Z,97833.38
2023-03-23T03:46:43.374Z,97845.19
2023-03-23T03:49:13.480Z,97835.25
2023-03-23T03:51:41.596Z,97861.81
2023-03-23T03:54:08.370Z,97874.44
2023-03-23T03:56:41.357Z,97893.53
2023-03-23T03:59:21.764Z,97949.72
2023-03-23T04:01:55.744Z,98040.22
2023-03-23T04:04:23.331Z,98143.09
2023-03-23T04:06:50.192Z,98152.59
2023-03-23T04:09:17.106Z,98171.13
2023-03-23T04:11:44.702Z,98179.22
2023-03-23T04:14:11.526Z,98241.47
2023-03-23T04:16:38.645Z,98381.31
2023-03-23T04:19:05.297Z,98326.22
2023-03-23T04:21:31.928Z,98455.97
2023-03-23T04:24:02.207Z,98412.28
2023-03-23T04:26:33.720Z,98515.91
2023-03-23T04:29:00.270Z,98488.22
2023-03-23T04:31:27.133Z,98524.19
2023-03-23T04:33:58.705Z,98537.56
2023-03-23T04:36:27.147Z,98560.81
2023-03-23T04:39:14.559Z,98585.09
2023-03-23T04:41:41.479Z,98612.44
2023-03-23T04:44:08.375Z,98611.38
2023-03-23T04:46:35.093Z,98619.66
2023-03-23T04:49:01.971Z,98570.50
2023-03-23T04:51:32.435Z,98639.56
2023-03-23T04:53:59.072Z,98579.25
2023-03-23T04:56:25.656Z,98645.75
2023-03-23T04:58:52.643Z,98676.09
2023-03-23T05:01:19.256Z,98636.31
2023-03-23T05:03:45.999Z,98716.06
2023-03-23T05:06:12.546Z,98718.25
2023-03-23T05:08:40.093Z,98765.19
2023-03-23T05:11:07.209Z,98762.69
2023-03-23T05:13:33.981Z,98787.97
2023-03-23T05:16:05.852Z,98825.94
2023-03-23T05:18:33.784Z,98782.94
2023-03-23T05:21:02.134Z,98803.97
2023-03-23T05:23:28.913Z,98831.88
2023-03-23T05:25:57.193Z,98833.56
2023-03-23T05:28:23.933Z,98852.53
2023-03-23T05:30:51.692Z,98833.94
2023-03-23T05:33:18.296Z,98837.47
2023-03-23T05:35:48.207Z,98869.00
2023-03-23T05:38:15.801Z,98862.78
2023-03-23T05:40:43.672Z,98871.91
2023-03-23T05:43:10.948Z,98897.22
2023-03-23T05:45:37.502Z,98859.44
2023-03-23T05:48:04.175Z,98859.88
2023-03-23T05:50:30.771Z,98924.41
2023-03-23T05:52:57.431Z,99001.09
2023-03-23T05:55:24.316Z,98956.84
2023-03-23T05:57:50.834Z,98950.75
2023-03-23T06:00:20.926Z,99001.09
2023-03-23T06:02:49.358Z,99014.06
2023-03-23T06:05:17.015Z,99017.38
2023-03-23T06:07:44.137Z,98993.44
2023-03-23T06:10:11.572Z,99008.53
2023-03-23T06:12:40.496Z,99054.91
2023-03-23T06:15:08.962Z,99010.88
2023-03-23T06:17:37.400Z,99028.19
2023-03-23T06:20:09.953Z,99042.03
2023-03-23T06:22:40.823Z,99109.91
2023-03-23T06:25:09.410Z,99277.50
2023-03-23T06:27:36.466Z,99277.66
2023-03-23T06:30:05.098Z,99280.69
2023-03-23T06:32:33.455Z,99278.66
2023-03-23T06:35:00.306Z,99313.47
2023-03-23T06:37:26.840Z,99305.53
2023-03-23T06:39:53.404Z,99310.09
2023-03-23T06:42:20.063Z,99298.34
2023-03-23T06:44:46.887Z,99311.03
2023-03-23T06:47:13.670Z,99320.00
2023-03-23T06:49:40.287Z,99327.94
2023-03-23T06:52:07.427Z,99345.38
2023-03-23T06:54:34.060Z,99351.59
2023-03-23T06:57:00.654Z,99362.66
2023-03-23T06:59:27.500Z,99373.06
2023-03-23T07:01:54.500Z,99354.66
2023-03-23T07:04:21.056Z,99383.25
2023-03-23T07:06:48.309Z,99413.69
2023-03-23T07:09:15.056Z,99394.91
2023-03-23T07:11:42.564Z,99385.31
2023-03-23T07:14:09.320Z,99350.72
2023-03-23T07:16:38.720Z,99360.19
2023-03-23T07:19:05.382Z,99357.25
2023-03-23T07:21:32.487Z,99393.72
2023-03-23T07:23:58.999Z,99405.63
2023-03-23T07:26:25.623Z,99350.84
2023-03-23T07:28:52.528Z,99391.44
2023-03-23T07:31:19.142Z,99407.06
2023-03-23T07:33:45.744Z,99410.94
2023-03-23T07:36:12.549Z,99377.19
2023-03-23T07:38:39.743Z,99394.91
2023-03-23T07:41:07.370Z,99402.91
2023-03-23T07:43:33.978Z,99460.16
2023-03-23T07:46:00.697Z,99475.72
2023-03-23T07:48:27.911Z,99476.34
2023-03-23T07:50:54.584Z,99458.94
2023-03-23T07:53:22.675Z,99405.69
2023-03-23T07:55:50.006Z,99388.09
2023-03-23T07:58:20.201Z,99322.13
2023-03-23T08:00:51.052Z,99311.25
2023-03-23T08:03:17.722Z,99230.81
2023-03-23T08:05:44.622Z,99284.06
2023-03-23T08:08:11.357Z,99263.03
2023-03-23T08:10:38.205Z,99307.25
2023-03-23T08:13:05.235Z,98885.25
2023-03-23T08:15:32.364Z,98969.63
2023-03-23T08:17:59.454Z,99090.13
2023-03-23T08:20:26.494Z,98829.56
2023-03-23T08:22:56.379Z,98906.50
2023-03-23T08:25:26.015Z,99012.97
2023-03-23T08:27:53.794Z,98781.03
2023-03-23T08:30:23.697Z,98950.34
2023-03-23T08:32:51.801Z,97758.16
2023-03-23T08:35:19.658Z,101082.06
2023-03-23T08:37:47.056Z,100015.19
2023-03-23T08:40:17.763Z,99940.44
2023-03-23T08:42:47.337Z,99854.47
2023-03-23T08:45:22.145Z,99823.09
2023-03-23T08:47:52.934Z,99816.41
2023-03-23T08:50:24.047Z,99829.44
2023-03-23T08:52:51.232Z,99822.28
2023-03-23T08:55:20.363Z,99848.69
2023-03-23T08:57:48.218Z,99897.41
2023-03-23T09:00:20.667Z,99998.00
2023-03-23T09:02:49.599Z,100037.72
2023-03-23T09:05:18.132Z,100188.34
2023-03-23T09:07:48.759Z,99273.88
2023-03-23T09:10:19.053Z,98018.56
2023-03-23T09:12:47.561Z,97974.00
2023-03-23T09:15:18.706Z,97955.81
2023-03-23T09:17:50.913Z,98001.56
2023-03-23T09:20:21.623Z,98142.44
2023-03-23T09:22:51.400Z,98724.53
2023-03-23T09:25:26.838Z,99202.03
2023-03-23T09:27:57.403Z,99346.28
2023-03-23T09:30:30.022Z,99452.88
2023-03-23T09:32:57.418Z,99589.84
2023-03-23T09:35:24.646Z,99621.25
2023-03-23T09:37:52.850Z,99659.63
2023-03-23T09:40:25.624Z,99658.59
2023-03-23T09:43:31.160Z,99752.19
2023-03-23T09:46:09.866Z,99752.69
2023-03-23T09:48:47.418Z,99773.28
2023-03-23T09:51:32.146Z,99686.81
2023-03-23T09:54:04.396Z,99785.50
2023-03-23T09:56:33.802Z,99780.06
2023-03-23T09:59:20.831Z,99771.31
2023-03-23T10:01:53.487Z,99823.03
2023-03-23T10:04:23.153Z,99828.53
2023-03-23T10:06:49.739Z,99792.94
2023-03-23T10:09:19.929Z,99821.81
2023-03-23T10:12:28.352Z,99840.16
2023-03-23T10:15:13.796Z,99837.19
2023-03-23T10:18:16.347Z,99830.81
2023-03-23T10:20:57.879Z,99855.34
2023-03-23T10:23:49.607Z,99868.69
2023-03-23T10:26:16.215Z,99891.22
2023-03-23T10:28:45.764Z,99880.84
2023-03-23T10:31:24.264Z,99894.66
2023-03-23T10:33:55.781Z,99905.72
2023-03-23T10:36:30.882Z,99889.50
2023-03-23T10:39:13.859Z,99887.78
2023-03-23T10:41:40.445Z,99902.47
2023-03-23T10:44:27.079Z,99933.72
2023-03-23T10:47:07.423Z,99951.97
2023-03-23T10:49:54.944Z,99964.66
2023-03-23T10:52:43.224Z,99966.41
2023-03-23T10:55:24.292Z,99920.72
2023-03-23T10:58:10.864Z,99968.75
2023-03-23T11:00:48.637Z,99957.91
2023-03-23T11:03:15.874Z,99966.16
2023-03-23T11:05:44.941Z,99974.28
2023-03-23T11:08:21.188Z,99979.63
2023-03-23T11:10:57.079Z,100054.19
2023-03-23T11:13:32.424Z,100083.66
2023-03-23T11:15:59.849Z,100098.41
2023-03-23T11:18:41.530Z,100095.06
2023-03-23T11:21:12.761Z,100110.44
2023-03-23T11:23:50.070Z,100122.63
2023-03-23T11:26:24.736Z,100106.22
2023-03-23T11:29:00.280Z,100098.06
2023-03-23T11:31:39.756Z,100116.59
2023-03-23T11:34:19.519Z,100101.22
2023-03-23T11:36:58.995Z,100111.41
2023-03-23T11:39:29.525Z,100112.53
2023-03-23T11:42:09.031Z,100108.84
2023-03-23T11:44:42.897Z,100126.94
2023-03-23T11:47:21.614Z,100108.31
2023-03-23T11:50:05.464Z,100116.03
2023-03-23T11:52:47.863Z,100117.63
2023-03-23T11:55:20.619Z,100122.38
2023-03-23T11:57:47.485Z,100124.06
2023-03-23T12:00:17.395Z,100126.66
2023-03-23T12:03:08.604Z,100143.59
2023-03-23T12:05:49.602Z,100140.53
2023-03-23T12:08:36.521Z,100122.41
2023-03-23T12:11:37.466Z,100146.59
2023-03-23T12:14:30.103Z,100103.44
2023-03-23T12:17:30.799Z,100136.59
2023-03-23T12:20:27.012Z,100092.75
2023-03-23T12:22:58.568Z,99298.47
2023-03-23T12:25:47.801Z,98891.84
2023-03-23T12:28:17.253Z,99002.19
2023-03-23T12:30:49.764Z,99341.38
2023-03-23T12:33:46.894Z,99542.06
2023-03-23T12:36:14.006Z,99636.66
2023-03-23T12:39:20.408Z,99651.16
2023-03-23T12:42:17.269Z,99663.84
2023-03-23T12:45:04.175Z,99749.97
2023-03-23T12:47:51.791Z,99646.78
2023-03-23T12:50:28.793Z,99633.84
2023-03-23T12:53:05.799Z,99685.31
2023-03-23T12:55:46.183Z,99716.66
2023-03-23T12:58:21.755Z,99699.31
2023-03-23T13:01:00.230Z,99774.91
2023-03-23T13:03:39.859Z,99780.84
2023-03-23T13:06:32.405Z,99819.56
2023-03-23T13:09:13.297Z,99959.81
2023-03-23T13:11:44.000Z,100025.72
2023-03-23T13:14:27.420Z,100119.00
2023-03-23T13:17:07.181Z,100131.78
2023-03-23T13:19:56.190Z,100131.47
2023-03-23T13:22:32.751Z,100126.63
2023-03-23T13:25:05.035Z,100060.00
2023-03-23T13:27:31.735Z,100118.03
2023-03-23T13:29:59.499Z,100115.06
2023-03-23T13:32:43.631Z,100095.94
2023-03-23T13:35:16.139Z,100105.13
2023-03-23T13:37:48.249Z,100112.56
2023-03-23T13:40:29.003Z,100104.16
2023-03-23T13:43:01.236Z,100075.66
2023-03-23T13:45:31.534Z,100117.44
2023-03-23T13:48:23.366Z,100113.72
2023-03-23T13:50:58.747Z,100092.31
2023-03-23T13:53:33.500Z,100108.28
2023-03-23T13:56:28.292Z,100098.47
2023-03-23T13:59:17.952Z,100093.53
2023-03-23T14:01:44.797Z,100080.53
2023-03-23T14:04:16.311Z,100101.78
2023-03-23T14:06:44.748Z,100154.34
2023-03-23T14:09:23.798Z,100143.97
2023-03-23T14:11:59.787Z,100108.03
2023-03-23T14:14:34.331Z,99999.47
2023-03-23T14:17:29.249Z,98072.03
2023-03-23T14:20:00.227Z,95723.88
2023-03-23T14:22:29.352Z,95940.56
2023-03-23T14:25:16.337Z,96220.84
2023-03-23T14:27:44.167Z,96369.56
2023-03-23T14:30:37.495Z,96680.34
2023-03-23T14:33:09.722Z,96881.53
2023-03-23T14:35:38.869Z,97216.47
2023-03-23T14:38:06.082Z,97874.69
2023-03-23T14:40:32.956Z,98677.06
2023-03-23T14:43:00.412Z,99223.56
2023-03-23T14:45:27.361Z,99524.69
2023-03-23T14:48:03.295Z,99692.09
2023-03-23T14:50:40.615Z,99687.69
2023-03-23T14:53:13.100Z,100010.25
2023-03-23T14:55:44.197Z,100144.47
2023-03-23T14:58:16.556Z,100130.75
2023-03-23T15:00:52.697Z,100132.50
2023-03-23T15:03:20.614Z,100139.16
2023-03-23T15:05:55.312Z,100139.53
2023-03-23T15:08:30.907Z,100168.72
2023-03-23T15:11:12.550Z,100178.13
2023-03-23T15:13:45.739Z,100157.22
2023-03-23T15:16:28.026Z,100181.13
2023-03-23T15:19:00.868Z,100187.06
2023-03-23T15:21:32.780Z,100186.38
2023-03-23T15:24:00.091Z,100125.97
2023-03-23T15:26:42.182Z,100190.78
2023-03-23T15:29:08.747Z,100200.66
2023-03-23T15:31:41.030Z,100195.75
2023-03-23T15:34:15.611Z,100201.47
2023-03-23T15:36:42.549Z,100203.56
2023-03-23T15:39:13.442Z,100188.81
2023-03-23T15:41:50.002Z,100199.44
2023-03-23T15:44:26.468Z,100197.53
2023-03-23T15:47:07.228Z,100192.72
2023-03-23T15:49:34.536Z,100211.56
2023-03-23T15:52:01.221Z,100205.00
2023-03-23T15:54:31.961Z,100097.22
2023-03-23T15:56:58.652Z,100207.69
2023-03-23T15:59:25.328Z,100190.09
2023-03-23T16:01:52.147Z,100192.66
2023-03-23T16:04:19.951Z,100213.50
2023-03-23T16:06:46.842Z,100207.91
2023-03-23T16:09:20.757Z,100215.56
2023-03-23T16:11:47.350Z,100216.00
2023-03-23T16:14:14.320Z,100196.81
2023-03-23T16:16:50.497Z,100224.34
2023-03-23T16:19:18.307Z,100206.28
2023-03-23T16:21:45.117Z,100196.25
2023-03-23T16:24:11.834Z,100244.94
2023-03-23T16:26:40.906Z,100241.22
2023-03-23T16:29:20.510Z,100187.84
2023-03-23T16:32:00.035Z,100204.50
2023-03-23T16:34:28.990Z,100222.75
2023-03-23T16:36:56.551Z,100204.63
2023-03-23T16:39:23.503Z,100182.13
2023-03-23T16:41:50.093Z,100203.72
2023-03-23T16:44:16.816Z,100223.69
2023-03-23T16:46:43.519Z,100212.63
2023-03-23T16:49:10.154Z,100169.66
2023-03-23T16:51:36.853Z,100187.75
2023-03-23T16:54:03.424Z,100159.66
2023-03-23T16:56:30.079Z,100143.84
2023-03-23T16:58:56.831Z,100179.28
2023-03-23T17:01:23.534Z,100146.81
2023-03-23T17:03:50.310Z,100118.84
2023-03-23T17:06:17.017Z,100155.63
2023-03-23T17:08:44.944Z,100188.13
2023-03-23T17:11:12.022Z,100135.06
2023-03-23T17:13:38.669Z,100153.75
2023-03-23T17:16:06.333Z,100201.66
2023-03-23T17:18:32.978Z,100141.53
2023-03-23T17:20:59.636Z,100186.94
2023-03-23T17:23:26.281Z,100205.38
2023-03-23T17:25:53.999Z,100203.53
2023-03-23T17:28:21.082Z,100214.56
2023-03-23T17:30:47.989Z,100213.00
2023-03-23T17:33:14.782Z,100213.03
2023-03-23T17:35:42.118Z,100217.94
2023-03-23T17:38:08.870Z,100034.84
2023-03-23T17:40:35.467Z,100185.19
2023-03-23T17:43:02.049Z,100168.84
2023-03-23T17:45:28.834Z,100219.00
2023-03-23T17:47:55.452Z,100191.25
2023-03-23T17:50:22.259Z,100212.91
2023-03-23T17:52:49.983Z,100209.44
2023-03-23T17:55:16.923Z,100221.69
2023-03-23T17:57:44.926Z,100168.59
2023-03-23T18:00:13.161Z,100215.56
2023-03-23T18:02:39.896Z,100195.94
2023-03-23T18:05:09.427Z,100199.97
2023-03-23T18:07:37.242Z,100201.22
2023-03-23T18:10:11.832Z,100192.59
2023-03-23T18:12:40.225Z,100183.16
2023-03-23T18:15:07.537Z,100161.44
2023-03-23T18:17:34.178Z,100130.13
2023-03-23T18:20:00.805Z,100160.72
2023-03-23T18:22:27.417Z,100149.41
2023-03-23T18:24:54.501Z,100130.75
2023-03-23T18:27:21.214Z,100144.63
2023-03-23T18:29:47.892Z,100132.94
2023-03-23T18:32:14.437Z,100116.06
2023-03-23T18:34:41.976Z,100088.50
2023-03-23T18:37:09.017Z,100041.09
2023-03-23T18:39:35.633Z,100060.59
2023-03-23T18:42:02.276Z,100016.03
2023-03-23T18:44:29.097Z,100043.34
2023-03-23T18:46:55.720Z,100030.34
2023-03-23T18:49:22.745Z,99982.00
2023-03-23T18:51:49.451Z,100020.66
2023-03-23T18:54:17.707Z,99976.34
2023-03-23T18:56:44.338Z,99940.09
2023-03-23T18:59:11.152Z,99948.19
2023-03-23T19:01:37.851Z,99922.66
2023-03-23T19:04:06.346Z,99929.41
2023-03-23T19:06:34.997Z,99924.03
2023-03-23T19:09:02.030Z,99938.00
2023-03-23T19:11:29.068Z,99931.88
2023-03-23T19:14:02.238Z,99917.53
2023-03-23T19:16:36.052Z,99917.63
2023-03-23T19:19:03.850Z,99902.63
2023-03-23T19:21:31.760Z,99874.56
2023-03-23T19:23:59.373Z,99892.31
2023-03-23T19:26:36.973Z,99884.66
2023-03-23T19:31:35.570Z,99888.25
2023-03-23T19:34:02.248Z,99881.47
2023-03-23T19:36:28.901Z,99857.19
2023-03-23T19:38:57.741Z,99811.22
2023-03-23T19:41:29.575Z,99870.13
2023-03-23T19:43:56.273Z,99883.00
2023-03-23T19:46:23.818Z,99877.44
2023-03-23T19:48:50.827Z,99861.06
2023-03-23T19:51:19.550Z,99865.13
2023-03-23T19:53:46.722Z,99853.22
2023-03-23T19:56:15.797Z,99850.75
2023-03-23T19:58:42.958Z,99797.28
2023-03-23T20:01:09.925Z,99851.47
2023-03-23T20:03:37.015Z,99831.31
2023-03-23T20:06:08.847Z,99817.06
2023-03-23T20:08:35.608Z,99804.28
2023-03-23T20:11:08.463Z,99817.84
2023-03-23T20:13:35.916Z,99807.16
2023-03-23T20:16:02.626Z,99773.00
2023-03-23T20:18:30.002Z,99783.34
2023-03-23T20:21:08.060Z,99758.63
2023-03-23T20:23:36.218Z,99777.75
2023-03-23T20:26:06.838Z,99773.00
2023-03-23T20:28:33.558Z,99769.19
2023-03-23T20:31:16.707Z,99767.78
2023-03-23T20:34:00.639Z,99778.06
2023-03-23T20:36:40.564Z,99757.28
2023-03-23T20:39:18.740Z,99761.53
2023-03-23T20:41:47.673Z,99769.53
2023-03-23T20:44:15.955Z,99749.38
2023-03-23T20:46:47.375Z,99738.97
2023-03-23T20:49:16.044Z,99711.75
2023-03-23T20:51:43.824Z,99766.44
2023-03-23T20:54:11.004Z,99748.94
2023-03-23T20:56:40.540Z,99765.50
2023-03-23T20:59:07.140Z,99764.94
2023-03-23T21:01:34.638Z,99760.09
2023-03-23T21:04:03.455Z,99748.09
2023-03-23T21:06:31.118Z,99767.38
2023-03-23T21:08:58.462Z,99718.53
2023-03-23T21:11:27.252Z,99751.50
2023-03-23T21:13:54.940Z,99755.38
2023-03-23T21:16:23.799Z,99756.91
2023-03-23T21:18:50.801Z,99742.03
2023-03-23T21:21:18.602Z,99745.38
2023-03-23T21:23:53.003Z,99728.16
2023-03-23T21:26:26.593Z,99724.44
2023-03-23T21:29:00.473Z,99729.34
2023-03-23T21:31:33.279Z,99697.91
2023-03-23T21:34:00.495Z,99692.50
2023-03-23T21:36:28.094Z,99731.88
2023-03-23T21:38:55.825Z,99716.50
2023-03-23T21:41:23.364Z,99706.16
2023-03-23T21:43:50.269Z,99687.59
2023-03-23T21:46:19.993Z,99671.44
2023-03-23T21:48:51.695Z,99671.78
2023-03-23T21:51:24.211Z,99664.69
2023-03-23T21:53:54.457Z,99679.91
2023-03-23T21:56:23.023Z,99649.00
2023-03-23T21:58:49.599Z,99683.94
2023-03-23T22:01:17.786Z,99643.94
2023-03-23T22:03:44.519Z,99681.59
2023-03-23T22:06:15.167Z,99669.75
2023-03-23T22:08:43.675Z,99654.91
2023-03-23T22:11:19.855Z,99632.63
2023-03-23T22:13:46.816Z,99618.09
2023-03-23T22:16:17.867Z,99558.84
2023-03-23T22:18:46.440Z,99636.63
2023-03-23T22:21:13.828Z,99619.75
2023-03-23T22:23:40.963Z,99626.16
2023-03-23T22:26:08.689Z,99624.28
2023-03-23T22:28:37.225Z,99614.69
2023-03-23T22:31:25.695Z,99611.13
2023-03-23T22:33:55.201Z,99564.31
2023-03-23T22:36:24.387Z,99603.38
2023-03-23T22:38:52.072Z,99583.28
2023-03-23T22:41:25.347Z,99583.00
2023-03-23T22:43:52.243Z,99575.38
2023-03-23T22:46:19.355Z,99581.09
2023-03-23T22:48:46.664Z,99583.25
2023-03-23T22:51:15.781Z,99571.97
2023-03-23T22:53:42.865Z,99554.59
2023-03-23T22:56:10.056Z,99572.78
2023-03-23T22:58:37.264Z,99561.63
2023-03-23T23:01:07.536Z,99579.38
2023-03-23T23:03:35.495Z,99581.41
2023-03-23T23:06:02.610Z,99581.06
2023-03-23T23:08:30.847Z,99542.91
2023-03-23T23:10:59.077Z,99555.88
2023-03-23T23:13:27.171Z,99566.47
2023-03-23T23:15:56.609Z,99543.38
2023-03-23T23:18:23.655Z,99576.94
2023-03-23T23:20:52.290Z,99558.38
2023-03-23T23:23:19.355Z,99559.13
2023-03-23T23:25:46.470Z,99543.03
2023-03-23T23:28:13.983Z,99537.97
2023-03-23T23:30:41.141Z,99536.78
2023-03-23T23:33:07.959Z,99530.38
2023-03-23T23:35:37.151Z,99511.38
2023-03-23T23:38:05.110Z,99494.84
2023-03-23T23:40:33.227Z,99506.09
2023-03-23T23:43:00.123Z,99447.94
2023-03-23T23:45:26.797Z,99522.81
2023-03-23T23:47:53.634Z,99515.16
2023-03-23T23:50:20.435Z,99531.50
2023-03-23T23:52:47.240Z,99513.66
2023-03-23T23:55:16.011Z,99516.69
2023-03-23T23:57:47.063Z,99505.91
